Time;durP1;ratioP1;P1;durP2;ratioP2;P2;SDS_P1;SDS_P2;PMS_P1;PMS_P2;Temp;Humidity;BMP_temperature;BMP_pressure;BME280_temperature;BME280_humidity;BME280_pressure;Samples;Min_cycle;Max_cycle;Signal;HPM_P1;HPM_P2
2022/07/12 00:01:13;;;;;;;0.90;0.90;;;12.20;99.90;13.60;97414.00;;;;5039723;28;20703;-68
2022/07/12 00:04:03;;;;;;;1.10;1.00;;;12.20;99.90;13.90;97407.00;;;;5040092;28;20303;-68
2022/07/12 00:06:52;;;;;;;0.80;0.80;;;12.30;99.90;14.10;97410.00;;;;5031456;28;20851;-68
2022/07/12 00:09:40;;;;;;;0.80;0.80;;;12.50;99.90;14.10;97404.00;;;;5037716;28;20232;-68
2022/07/12 00:12:29;;;;;;;0.87;0.87;;;12.60;99.90;13.90;97411.00;;;;5031668;28;20205;-68
2022/07/12 00:15:18;;;;;;;0.83;0.83;;;12.60;99.90;13.60;97415.00;;;;5035320;28;20194;-70
2022/07/12 00:18:07;;;;;;;1.13;0.80;;;12.70;99.90;13.80;97416.00;;;;5037140;28;20602;-67
2022/07/12 00:20:57;;;;;;;1.20;0.80;;;12.60;99.90;14.00;97408.00;;;;5030722;28;20224;-68
2022/07/12 00:23:46;;;;;;;0.90;0.90;;;12.70;99.90;14.30;97410.00;;;;5037819;28;20204;-69
2022/07/12 00:26:35;;;;;;;1.10;0.80;;;12.80;99.90;14.30;97408.00;;;;5040222;28;20205;-69
2022/07/12 00:29:24;;;;;;;4.27;0.80;;;12.80;99.90;14.30;97405.00;;;;5044931;28;20224;-68
2022/07/12 00:32:13;;;;;;;1.73;0.70;;;12.90;99.90;14.10;97403.00;;;;5030453;28;20205;-68
2022/07/12 00:35:02;;;;;;;0.77;0.77;;;12.90;99.90;13.40;97399.00;;;;5028812;28;20212;-68
2022/07/12 00:37:52;;;;;;;1.77;0.80;;;12.80;99.90;14.00;97405.00;;;;5033535;28;20228;-68
2022/07/12 00:40:41;;;;;;;0.93;0.87;;;12.80;99.90;14.30;97408.00;;;;5040038;28;20221;-68
2022/07/12 00:43:30;;;;;;;0.60;0.60;;;12.80;99.90;14.50;97413.00;;;;5038975;28;20683;-69
2022/07/12 00:46:24;;;;;;;1.00;0.83;;;12.90;99.90;14.60;97416.00;;;;5045100;28;20200;-68
2022/07/12 00:49:15;;;;;;;0.87;0.83;;;13.00;99.90;14.30;97404.00;;;;5041396;28;20281;-67
2022/07/12 00:52:05;;;;;;;0.90;0.90;;;13.00;99.90;14.50;97414.00;;;;5029618;28;20202;-69
2022/07/12 00:54:55;;;;;;;0.90;0.90;;;13.10;99.90;14.40;97406.00;;;;5040285;28;20232;-68
2022/07/12 00:57:44;;;;;;;0.70;0.70;;;13.10;99.90;13.80;97402.00;;;;5034629;28;20225;-68
2022/07/12 01:00:33;;;;;;;0.87;0.63;;;13.00;99.90;13.80;97401.00;;;;5043885;28;20220;-68
2022/07/12 01:03:22;;;;;;;2.60;0.73;;;12.90;99.90;13.80;97409.00;;;;5039449;28;20211;-68
2022/07/12 01:06:12;;;;;;;1.23;0.93;;;12.90;99.90;13.80;97401.00;;;;5037101;28;20219;-67
2022/07/12 01:09:01;;;;;;;1.03;0.90;;;12.90;99.90;14.00;97405.00;;;;5042912;28;20618;-68
2022/07/12 01:11:51;;;;;;;1.17;1.07;;;12.90;99.90;13.90;97400.00;;;;5041024;28;20580;-68
2022/07/12 01:14:41;;;;;;;0.80;0.80;;;12.80;99.90;13.40;97392.00;;;;5039118;28;20201;-68
2022/07/12 01:17:30;;;;;;;1.03;0.93;;;12.80;99.90;13.50;97389.00;;;;5045089;28;20232;-68
2022/07/12 01:20:19;;;;;;;2.03;0.80;;;12.70;99.90;13.70;97396.00;;;;5041307;28;20223;-68
2022/07/12 01:23:10;;;;;;;2.00;0.70;;;12.70;99.90;13.90;97387.00;;;;5031427;28;20243;-68
2022/07/12 01:25:59;;;;;;;2.10;1.30;;;12.70;99.90;14.00;97386.00;;;;5030880;28;20200;-68
2022/07/12 01:28:52;;;;;;;1.63;0.77;;;12.70;99.90;14.10;97387.00;;;;5026749;28;20197;-69
2022/07/12 01:31:41;;;;;;;2.30;0.80;;;12.70;99.90;14.20;97390.00;;;;5035677;28;20216;-68
2022/07/12 01:34:30;;;;;;;0.80;0.80;;;12.70;99.90;14.30;97385.00;;;;5043085;28;20205;-69
2022/07/12 01:37:20;;;;;;;2.30;0.87;;;12.80;99.90;14.40;97384.00;;;;5046304;28;20217;-68
2022/07/12 01:40:13;;;;;;;1.27;1.17;;;12.80;99.90;14.30;97375.00;;;;5035933;28;20605;-68
2022/07/12 01:43:01;;;;;;;1.00;0.90;;;12.90;99.90;14.10;97370.00;;;;5030226;28;20201;-68
2022/07/12 01:45:50;;;;;;;0.97;0.90;;;12.90;99.90;13.50;97372.00;;;;5033673;28;20204;-69
2022/07/12 01:48:39;;;;;;;2.60;2.40;;;12.80;99.90;13.70;97386.00;;;;5032441;28;20191;-68
2022/07/12 01:51:28;;;;;;;1.00;0.90;;;12.70;99.90;13.70;97384.00;;;;5030684;28;20239;-68
2022/07/12 01:54:17;;;;;;;0.63;0.63;;;12.70;99.90;13.60;97377.00;;;;5044894;28;20208;-68
2022/07/12 01:57:07;;;;;;;1.23;0.90;;;12.60;99.90;13.60;97388.00;;;;5044327;28;20699;-68
2022/07/12 01:59:57;;;;;;;2.93;0.87;;;12.60;99.90;13.90;97394.00;;;;5043326;28;20216;-68
2022/07/12 02:02:47;;;;;;;1.40;1.00;;;12.60;99.90;14.10;97384.00;;;;5049347;28;20226;-68
2022/07/12 02:05:36;;;;;;;0.90;0.90;;;12.70;99.90;14.00;97380.00;;;;5043374;28;20224;-68
2022/07/12 02:08:25;;;;;;;3.33;0.93;;;12.70;99.90;14.30;97391.00;;;;5033150;28;20205;-68
2022/07/12 02:11:14;;;;;;;1.23;0.70;;;12.70;99.90;14.50;97391.00;;;;5043950;28;20233;-68
2022/07/12 02:14:04;;;;;;;0.90;0.90;;;12.80;99.90;14.40;97393.00;;;;5037519;28;20247;-68
2022/07/12 02:16:53;;;;;;;0.80;0.80;;;12.90;99.90;14.50;97394.00;;;;5045961;28;20211;-68
2022/07/12 02:19:42;;;;;;;0.70;0.70;;;13.00;99.90;14.40;97400.00;;;;5040699;28;20582;-68
2022/07/12 02:22:31;;;;;;;3.90;0.70;;;13.00;99.90;14.20;97393.00;;;;5039909;28;20215;-68
2022/07/12 02:25:20;;;;;;;1.10;0.90;;;13.00;99.90;13.60;97391.00;;;;5042130;28;20212;-69
2022/07/12 02:28:08;;;;;;;0.80;0.80;;;13.00;99.90;13.20;97395.00;;;;5047802;28;20200;-67
2022/07/12 02:30:59;;;;;;;1.00;0.90;;;12.80;99.90;13.50;97391.00;;;;5044274;28;20712;-69
2022/07/12 02:33:48;;;;;;;1.10;0.90;;;12.70;99.90;13.70;97400.00;;;;5038955;28;20197;-68
2022/07/12 02:36:36;;;;;;;2.10;0.93;;;12.70;99.90;14.00;97391.00;;;;5037115;28;20826;-68
2022/07/12 02:39:26;;;;;;;0.80;0.73;;;12.70;99.90;14.10;97399.00;;;;5032627;28;20233;-68
2022/07/12 02:42:14;;;;;;;1.77;0.90;;;12.70;99.90;13.90;97405.00;;;;5030452;28;20208;-68
2022/07/12 02:45:04;;;;;;;2.00;0.90;;;12.70;99.90;14.00;97407.00;;;;5041337;28;20205;-68
2022/07/12 02:47:54;;;;;;;1.33;1.00;;;12.80;99.90;14.10;97402.00;;;;5049213;28;20587;-68
2022/07/12 02:50:43;;;;;;;0.77;0.70;;;12.80;99.90;13.80;97406.00;;;;5033040;28;20704;-68
2022/07/12 02:53:33;;;;;;;0.80;0.80;;;12.70;99.90;14.10;97400.00;;;;5031375;28;20210;-69
2022/07/12 02:56:25;;;;;;;1.80;1.17;;;12.70;99.90;13.70;97393.00;;;;5038634;28;20604;-68
2022/07/12 02:59:14;;;;;;;2.90;0.90;;;12.70;99.90;13.90;97403.00;;;;5039719;28;20225;-69
2022/07/12 03:02:03;;;;;;;1.57;0.90;;;12.70;99.90;14.10;97404.00;;;;5045091;28;20591;-68
2022/07/12 03:04:53;;;;;;;3.80;0.80;;;12.70;99.90;14.10;97399.00;;;;5042395;28;20212;-68
2022/07/12 03:07:42;;;;;;;1.07;1.00;;;12.80;99.90;13.90;97405.00;;;;5038683;28;20207;-68
2022/07/12 03:10:30;;;;;;;1.50;0.83;;;12.80;99.90;13.50;97407.00;;;;5040179;28;20229;-69
2022/07/12 03:13:19;;;;;;;2.57;0.90;;;12.70;99.90;13.70;97408.00;;;;5042813;28;20194;-68
2022/07/12 03:16:08;;;;;;;0.80;0.80;;;12.70;99.90;13.60;97411.00;;;;5043323;28;20199;-68
2022/07/12 03:18:57;;;;;;;1.50;1.10;;;12.60;99.90;13.90;97405.00;;;;5035073;28;20228;-68
2022/07/12 03:21:47;;;;;;;1.03;0.93;;;12.60;99.90;13.70;97409.00;;;;5043929;28;20227;-68
2022/07/12 03:24:36;;;;;;;1.00;0.80;;;12.60;99.90;13.70;97411.00;;;;5030941;28;20209;-69
2022/07/12 03:27:25;;;;;;;1.90;1.00;;;12.60;99.90;13.80;97416.00;;;;5041202;28;20205;-68
2022/07/12 03:30:14;;;;;;;1.60;0.80;;;12.60;99.90;14.00;97411.00;;;;5037823;28;20704;-68
2022/07/12 03:33:03;;;;;;;0.80;0.80;;;12.60;99.90;14.20;97408.00;;;;5041090;28;20213;-68
2022/07/12 03:35:52;;;;;;;1.03;1.00;;;12.70;99.90;14.10;97413.00;;;;5043512;28;20201;-68
2022/07/12 03:38:43;;;;;;;1.47;1.20;;;12.80;99.90;13.80;97407.00;;;;5032227;28;20228;-68
2022/07/12 03:41:32;;;;;;;0.90;0.90;;;12.80;99.90;13.60;97406.00;;;;5032684;28;20215;-67
2022/07/12 03:44:20;;;;;;;1.53;1.10;;;12.70;99.90;13.50;97408.00;;;;5034886;28;20193;-68
2022/07/12 03:47:09;;;;;;;0.80;0.80;;;12.60;99.90;13.80;97419.00;;;;5041576;28;20664;-68
2022/07/12 03:49:58;;;;;;;3.93;1.20;;;12.70;99.90;13.90;97413.00;;;;5047836;28;20220;-68
2022/07/12 03:52:47;;;;;;;0.80;0.73;;;12.60;99.90;14.10;97417.00;;;;5046366;28;20212;-69
2022/07/12 03:55:37;;;;;;;0.93;0.93;;;12.70;99.90;14.00;97407.00;;;;5046388;28;20216;-68
2022/07/12 03:58:26;;;;;;;1.47;1.10;;;12.80;99.90;14.00;97410.00;;;;5044305;28;20242;-68
2022/07/12 04:01:15;;;;;;;1.10;1.00;;;12.80;99.90;13.90;97415.00;;;;5043723;28;20228;-69
2022/07/12 04:04:04;;;;;;;0.77;0.77;;;12.80;99.90;13.90;97422.00;;;;5036606;28;20216;-68
2022/07/12 04:06:52;;;;;;;2.10;0.83;;;12.80;99.90;14.10;97404.00;;;;5029155;28;20216;-68
2022/07/12 04:09:43;;;;;;;2.83;1.30;;;12.80;99.90;14.20;97414.00;;;;5031492;28;20240;-68
2022/07/12 04:12:33;;;;;;;0.93;0.93;;;12.90;99.90;14.50;97414.00;;;;5047869;28;20211;-68
2022/07/12 04:15:22;;;;;;;3.00;1.17;;;12.90;99.90;14.40;97416.00;;;;5047902;28;20197;-68
2022/07/12 04:18:11;;;;;;;2.80;1.03;;;13.00;99.90;14.30;97418.00;;;;5047643;28;20220;-68
2022/07/12 04:21:00;;;;;;;0.97;0.97;;;13.10;99.90;14.40;97422.00;;;;5048198;28;20221;-68
2022/07/12 04:23:49;;;;;;;0.77;0.77;;;13.10;99.90;14.20;97420.00;;;;5036520;28;20204;-68
2022/07/12 04:26:37;;;;;;;1.13;1.00;;;13.10;99.90;14.30;97420.00;;;;5048549;28;20563;-68
2022/07/12 04:29:27;;;;;;;0.80;0.80;;;13.10;99.90;14.20;97423.00;;;;5046755;28;20239;-68
2022/07/12 04:32:16;;;;;;;3.50;0.90;;;13.10;99.90;14.30;97427.00;;;;5047234;28;20212;-68
2022/07/12 04:35:07;;;;;;;0.97;0.97;;;13.10;99.90;14.40;97418.00;;;;5045641;28;20597;-68
2022/07/12 04:37:56;;;;;;;0.77;0.77;;;13.10;99.90;14.50;97425.00;;;;5046670;28;20597;-68
2022/07/12 04:40:44;;;;;;;1.37;1.00;;;13.20;99.90;14.40;97429.00;;;;5046933;28;20213;-68
2022/07/12 04:43:33;;;;;;;1.70;1.03;;;13.20;99.90;14.30;97425.00;;;;5042286;28;20213;-68
2022/07/12 04:46:23;;;;;;;1.43;1.33;;;13.20;99.90;14.20;97420.00;;;;5034968;28;20219;-68
2022/07/12 04:49:12;;;;;;;1.00;1.00;;;13.20;99.90;14.30;97420.00;;;;5047383;28;20681;-68
2022/07/12 04:52:01;;;;;;;1.10;1.10;;;13.20;99.90;14.30;97417.00;;;;5040234;28;20581;-68
2022/07/12 04:54:50;;;;;;;1.60;1.17;;;13.20;99.90;14.20;97415.00;;;;5028862;28;20220;-68
2022/07/12 04:57:39;;;;;;;1.03;0.93;;;13.20;99.90;14.40;97423.00;;;;5034529;28;20209;-68
2022/07/12 05:00:27;;;;;;;1.20;1.10;;;13.20;99.90;14.50;97418.00;;;;5048023;28;20242;-68
2022/07/12 05:03:18;;;;;;;1.40;0.90;;;13.20;99.90;14.50;97424.00;;;;5029548;28;20204;-68
2022/07/12 05:06:07;;;;;;;1.40;1.30;;;13.30;99.90;14.60;97414.00;;;;5038572;28;20884;-68
2022/07/12 05:08:55;;;;;;;1.53;1.27;;;13.30;99.90;14.70;97412.00;;;;5047561;28;20201;-68
2022/07/12 05:11:45;;;;;;;1.33;1.17;;;13.40;99.90;14.90;97413.00;;;;5032174;28;20207;-68
2022/07/12 05:14:33;;;;;;;1.27;1.23;;;13.50;99.90;14.70;97407.00;;;;5036669;28;20203;-67
2022/07/12 05:17:22;;;;;;;0.90;0.90;;;13.50;99.90;14.90;97407.00;;;;5047027;28;20228;-67
2022/07/12 05:20:13;;;;;;;1.23;1.23;;;13.60;99.90;15.30;97409.00;;;;5044698;28;20309;-67
2022/07/12 05:23:01;;;;;;;1.30;1.00;;;13.70;99.90;15.40;97418.00;;;;5042867;28;20196;-66
2022/07/12 05:25:50;;;;;;;1.23;1.20;;;13.80;99.90;15.40;97420.00;;;;5043409;28;20197;-67
2022/07/12 05:28:39;;;;;;;1.40;1.30;;;13.90;99.90;15.30;97421.00;;;;5041146;28;20694;-66
2022/07/12 05:31:28;;;;;;;1.27;1.17;;;14.00;99.90;15.40;97421.00;;;;5049415;28;20224;-67
2022/07/12 05:34:17;;;;;;;1.37;1.27;;;14.00;99.90;15.60;97423.00;;;;5051616;28;20208;-67
2022/07/12 05:37:07;;;;;;;1.60;1.50;;;14.10;99.90;15.50;97430.00;;;;5051716;28;20201;-67
2022/07/12 05:39:56;;;;;;;1.40;1.30;;;14.20;99.90;15.60;97425.00;;;;5037142;28;20233;-67
2022/07/12 05:42:45;;;;;;;1.70;1.13;;;14.20;99.90;15.60;97421.00;;;;5031360;28;20211;-67
2022/07/12 05:45:34;;;;;;;2.23;1.37;;;14.30;99.90;15.60;97426.00;;;;5031928;28;20208;-67
2022/07/12 05:48:23;;;;;;;1.73;1.10;;;14.30;99.90;15.70;97431.00;;;;5031556;28;20208;-67
2022/07/12 05:54:19;;;;;;;1.57;1.43;;;14.40;99.90;16.00;97427.00;;;;5048848;28;20239;-67
2022/07/12 05:57:08;;;;;;;2.20;1.50;;;14.50;99.90;16.10;97425.00;;;;5042742;28;20212;-67
2022/07/12 05:59:57;;;;;;;3.10;1.40;;;14.60;99.90;16.10;97422.00;;;;5046352;28;20236;-66
2022/07/12 06:02:46;;;;;;;7.63;1.30;;;14.60;99.90;16.10;97417.00;;;;5033201;28;20212;-67
2022/07/12 06:05:35;;;;;;;4.63;1.67;;;14.70;99.90;16.00;97414.00;;;;5051427;28;20201;-67
2022/07/12 06:08:24;;;;;;;3.67;1.47;;;14.70;99.90;16.00;97408.00;;;;5050675;28;20590;-66
2022/07/12 06:11:14;;;;;;;1.90;1.63;;;14.70;99.90;16.10;97408.00;;;;5039325;28;20251;-67
2022/07/12 06:14:03;;;;;;;2.20;1.40;;;14.80;99.90;16.50;97400.00;;;;5039442;28;20207;-67
2022/07/12 06:16:51;;;;;;;1.53;1.43;;;14.90;99.90;16.80;97416.00;;;;5050330;28;20205;-68
2022/07/12 06:19:40;;;;;;;4.20;2.07;;;15.00;99.90;17.10;97426.00;;;;5050942;28;20233;-66
2022/07/12 06:22:29;;;;;;;3.00;1.60;;;15.10;99.90;17.30;97422.00;;;;5050974;28;20200;-67
2022/07/12 06:25:18;;;;;;;2.40;1.43;;;15.30;99.90;17.50;97420.00;;;;5049493;28;20212;-67
2022/07/12 06:28:28;;;;;;;2.20;1.37;;;15.50;99.90;17.60;97416.00;;;;5049504;28;20211;-67
2022/07/12 06:31:17;;;;;;;1.50;1.40;;;15.70;99.90;17.70;97430.00;;;;5047282;28;20700;-66
2022/07/12 06:34:06;;;;;;;1.23;1.03;;;15.80;99.90;17.70;97432.00;;;;5050326;28;20293;-67
2022/07/12 06:36:55;;;;;;;2.53;1.27;;;15.90;99.90;17.10;97429.00;;;;5050423;28;20193;-67
2022/07/12 06:39:43;;;;;;;1.90;1.70;;;15.90;99.90;16.80;97426.00;;;;5039478;28;20720;-67
2022/07/12 06:42:32;;;;;;;7.20;1.70;;;15.80;99.90;17.00;97426.00;;;;5030358;28;20740;-66
2022/07/12 06:45:22;;;;;;;2.67;1.27;;;15.80;99.90;17.30;97428.00;;;;5031146;28;20210;-67
2022/07/12 06:48:11;;;;;;;3.67;2.10;;;15.80;99.90;17.00;97419.00;;;;5029750;28;20219;-67
2022/07/12 06:51:00;;;;;;;1.83;1.67;;;15.80;99.90;17.00;97417.00;;;;5048635;28;20224;-67
2022/07/12 06:53:49;;;;;;;4.50;2.17;;;15.80;99.90;16.90;97410.00;;;;5050130;28;20201;-67
2022/07/12 06:56:38;;;;;;;3.27;1.57;;;15.70;99.90;17.20;97416.00;;;;5049889;28;20672;-66
2022/07/12 06:59:26;;;;;;;4.63;2.90;;;15.70;99.90;16.90;97410.00;;;;5049146;28;20838;-67
2022/07/12 07:02:17;;;;;;;5.20;1.50;;;15.70;99.90;17.00;97412.00;;;;5047643;28;20208;-67
2022/07/12 07:05:07;;;;;;;2.13;1.47;;;15.70;99.90;17.40;97403.00;;;;5048471;28;20672;-67
2022/07/12 07:07:56;;;;;;;4.73;2.33;;;15.80;99.90;17.50;97405.00;;;;5040768;28;20215;-66
2022/07/12 07:10:44;;;;;;;6.37;1.63;;;16.00;99.90;17.50;97406.00;;;;5042824;28;20236;-67
2022/07/12 07:13:33;;;;;;;1.50;1.40;;;16.00;99.90;17.30;97394.00;;;;5041196;28;20223;-67
2022/07/12 07:16:25;;;;;;;2.83;2.17;;;16.00;99.90;17.40;97406.00;;;;5047679;28;20197;-66
2022/07/12 07:19:15;;;;;;;1.10;1.10;;;16.00;99.90;17.40;97404.00;;;;5043104;28;20583;-67
2022/07/12 07:22:07;;;;;;;1.50;1.17;;;16.10;99.90;17.10;97408.00;;;;5037344;28;20208;-67
2022/07/12 07:24:55;;;;;;;4.97;1.87;;;16.10;99.90;17.20;97412.00;;;;5048091;28;20208;-67
2022/07/12 07:27:44;;;;;;;4.73;1.20;;;16.00;99.90;17.20;97412.00;;;;5034485;28;20204;-66
2022/07/12 07:33:39;;;;;;;4.87;1.57;;;16.10;99.90;17.70;97408.00;;;;5029099;28;20193;-66
2022/07/12 07:36:30;;;;;;;4.97;1.80;;;16.20;99.90;17.40;97406.00;;;;5045210;28;20213;-66
2022/07/12 07:39:18;;;;;;;2.37;1.93;;;16.20;99.90;17.70;97417.00;;;;5048484;28;20192;-67
2022/07/12 07:42:08;;;;;;;5.10;1.27;;;16.30;99.90;17.70;97418.00;;;;5044015;28;20588;-67
2022/07/12 07:44:57;;;;;;;2.80;1.23;;;16.30;99.90;17.60;97426.00;;;;5043760;28;20201;-67
2022/07/12 07:48:03;;;;;;;1.90;1.73;;;16.40;99.90;17.60;97423.00;;;;5034379;28;20205;-66
2022/07/12 07:51:10;;;;;;;2.23;1.37;;;16.40;99.90;17.40;97417.00;;;;5041534;28;20216;-67
2022/07/12 07:54:02;;;;;;;1.70;1.47;;;16.50;99.90;17.40;97413.00;;;;5041006;28;20694;-67
2022/07/12 07:56:51;;;;;;;1.30;1.20;;;16.50;99.90;17.80;97424.00;;;;5042435;28;20210;-67
2022/07/12 07:59:40;;;;;;;2.13;1.47;;;16.50;99.90;18.00;97439.00;;;;5040110;28;20228;-67
2022/07/12 08:02:28;;;;;;;3.87;2.03;;;16.60;99.90;18.10;97441.00;;;;5047825;28;20216;-66
2022/07/12 08:05:18;;;;;;;3.23;1.53;;;16.70;99.90;18.50;97452.00;;;;5043335;28;20274;-67
2022/07/12 08:08:08;;;;;;;2.57;1.90;;;16.80;99.90;19.00;97439.00;;;;5047573;28;20204;-67
2022/07/12 08:10:59;;;;;;;3.63;1.57;;;16.90;99.90;19.20;97449.00;;;;5045621;28;20247;-67
2022/07/12 08:13:48;;;;;;;2.93;1.83;;;17.20;99.90;19.00;97448.00;;;;5040367;28;20209;-66
2022/07/12 08:16:37;;;;;;;1.77;1.63;;;17.30;99.90;19.10;97456.00;;;;5036286;28;20201;-67
2022/07/12 08:19:26;;;;;;;1.37;1.27;;;17.30;99.90;19.00;97470.00;;;;5043096;28;20252;-66
2022/07/12 08:22:15;;;;;;;1.13;1.03;;;17.40;99.90;18.90;97471.00;;;;5047114;28;20199;-66
2022/07/12 08:25:04;;;;;;;3.70;1.30;;;17.50;99.90;18.30;97459.00;;;;5035662;28;20213;-66
2022/07/12 08:27:55;;;;;;;1.10;1.00;;;17.40;99.90;18.50;97473.00;;;;5046660;28;20224;-67
2022/07/12 08:30:44;;;;;;;2.87;1.00;;;17.40;99.90;18.70;97467.00;;;;5032228;28;20229;-67
2022/07/12 08:33:34;;;;;;;1.30;1.20;;;17.40;99.90;19.10;97486.00;;;;5040205;28;20705;-67
2022/07/12 08:36:23;;;;;;;2.20;1.13;;;17.40;99.90;19.00;97479.00;;;;5043176;28;20511;-67
2022/07/12 08:39:12;;;;;;;3.60;0.90;;;17.40;99.90;18.80;97484.00;;;;5047521;28;20204;-67
2022/07/12 08:42:01;;;;;;;1.13;1.00;;;17.40;99.90;19.10;97469.00;;;;5045983;28;20225;-67
2022/07/12 08:44:57;;;;;;;4.03;1.23;;;17.40;99.90;19.30;97473.00;;;;5047930;28;20205;-67
2022/07/12 08:47:46;;;;;;;1.37;1.27;;;17.60;99.90;19.20;97470.00;;;;5038760;28;20201;-67
2022/07/12 08:50:35;;;;;;;2.00;1.10;;;17.70;99.90;19.60;97484.00;;;;5048241;28;20224;-67
2022/07/12 08:53:26;;;;;;;1.13;1.00;;;17.80;99.90;19.30;97466.00;;;;5041722;28;20711;-69
2022/07/12 08:56:31;;;;;;;1.23;1.07;;;18.00;99.90;20.20;97467.00;;;;5036213;28;20201;-67
2022/07/12 08:59:22;;;;;;;1.93;0.90;;;18.20;99.90;20.20;97466.00;;;;5035913;28;20578;-68
2022/07/12 09:02:12;;;;;;;2.33;1.83;;;18.50;99.90;21.00;97452.00;;;;5037619;28;20221;-67
2022/07/12 09:05:08;;;;;;;1.50;0.90;;;18.80;99.90;21.60;97473.00;;;;5041354;28;20216;-67
2022/07/12 09:08:04;;;;;;;2.77;1.03;;;19.20;99.90;21.60;97463.00;;;;5044495;28;20222;-67
2022/07/12 09:10:57;;;;;;;1.77;1.17;;;18.80;99.90;20.40;97459.00;;;;5047692;28;20807;-67
2022/07/12 09:13:52;;;;;;;1.17;0.87;;;19.60;99.90;21.40;97471.00;;;;5035654;28;20205;-67
2022/07/12 09:16:42;;;;;;;1.20;1.03;;;19.60;99.90;21.10;97450.00;;;;5040873;28;20215;-67
2022/07/12 09:19:33;;;;;;;1.20;0.97;;;19.70;99.90;22.10;97455.00;;;;5040222;28;20704;-68
2022/07/12 09:22:21;;;;;;;0.70;0.70;;;19.80;99.90;21.90;97427.00;;;;5047413;28;20226;-68
2022/07/12 09:25:18;;;;;;;1.00;0.80;;;20.10;99.90;22.00;97452.00;;;;5035891;28;20212;-67
2022/07/12 09:28:09;;;;;;;0.80;0.80;;;20.30;99.90;22.90;97460.00;;;;5034699;28;20660;-67
2022/07/12 09:30:58;;;;;;;0.67;0.63;;;20.60;99.90;23.40;97461.00;;;;5033461;28;21066;-68
2022/07/12 09:37:15;;;;;;;1.33;1.07;;;21.20;99.90;23.60;97452.00;;;;5048822;28;20212;-68
2022/07/12 09:40:09;;;;;;;0.73;0.73;;;21.70;99.90;23.20;97414.00;;;;5038351;28;20794;-68
2022/07/12 09:42:58;;;;;;;0.97;0.83;;;21.80;99.90;24.30;97429.00;;;;5035599;28;20201;-69
2022/07/12 09:45:48;;;;;;;0.80;0.70;;;22.00;99.90;24.20;97459.00;;;;5032557;28;21072;-69
2022/07/12 09:48:38;;;;;;;0.97;0.67;;;22.20;99.90;23.40;97462.00;;;;5034154;28;20580;-69
2022/07/12 09:51:29;;;;;;;2.30;1.10;;;22.10;99.90;23.50;97474.00;;;;5030142;28;20229;-68
2022/07/12 09:54:27;;;;;;;0.50;0.50;;;22.00;99.90;22.90;97469.00;;;;5040243;28;20204;-67
2022/07/12 09:57:22;;;;;;;0.50;0.50;;;21.90;99.70;22.60;97461.00;;;;5034401;28;20313;-67
2022/07/12 10:00:13;;;;;;;0.70;0.70;;;21.60;99.90;22.50;97473.00;;;;5039263;28;20229;-67
2022/07/12 10:03:04;;;;;;;0.87;0.70;;;21.40;99.90;22.60;97474.00;;;;5040478;28;20209;-67
2022/07/12 10:05:54;;;;;;;0.80;0.70;;;21.20;99.90;22.70;97472.00;;;;5047987;28;20240;-67
2022/07/12 10:08:44;;;;;;;1.20;1.10;;;21.20;99.90;22.90;97458.00;;;;5050272;28;20221;-68
2022/07/12 10:11:35;;;;;;;1.13;0.80;;;21.20;99.90;23.50;97453.00;;;;5033223;28;20708;-67
2022/07/12 10:14:48;;;;;;;0.70;0.63;;;21.30;99.90;23.00;97452.00;;;;5028306;28;20205;-67
2022/07/12 10:17:40;;;;;;;0.50;0.50;;;21.40;99.90;22.80;97434.00;;;;5027163;28;20206;-67
2022/07/12 10:20:29;;;;;;;1.80;0.70;;;21.40;99.90;23.30;97449.00;;;;5030466;28;20606;-67
2022/07/12 10:23:36;;;;;;;1.30;1.20;;;21.50;99.90;22.80;97455.00;;;;5029126;28;20205;-68
2022/07/12 10:26:39;;;;;;;0.60;0.60;;;21.50;99.90;23.30;97459.00;;;;5035392;28;20204;-68
2022/07/12 10:29:28;;;;;;;1.23;0.73;;;21.50;99.60;22.90;97460.00;;;;5045391;28;20601;-69
2022/07/12 10:32:24;;;;;;;0.90;0.87;;;21.60;99.10;22.80;97461.00;;;;5047639;28;20207;-67
2022/07/12 10:35:17;;;;;;;2.10;0.80;;;21.50;99.20;23.10;97445.00;;;;5041587;28;20672;-68
2022/07/12 10:38:19;;;;;;;2.57;0.63;;;21.40;99.60;23.30;97452.00;;;;5039069;28;20205;-68
2022/07/12 10:41:19;;;;;;;0.70;0.50;;;21.50;99.90;23.40;97450.00;;;;5035603;28;20763;-67
2022/07/12 10:44:10;;;;;;;0.87;0.87;;;21.50;99.90;23.20;97449.00;;;;5042742;28;20204;-67
2022/07/12 10:47:01;;;;;;;0.73;0.73;;;21.50;99.40;23.30;97421.00;;;;5048591;28;20773;-68
2022/07/12 10:49:52;;;;;;;0.93;0.90;;;21.60;99.90;25.00;97387.00;;;;5046729;28;20712;-68
2022/07/12 10:52:41;;;;;;;0.90;0.80;;;22.10;99.90;26.60;97393.00;;;;5051619;28;20208;-67
2022/07/12 10:55:29;;;;;;;1.00;1.00;;;22.90;99.90;26.80;97378.00;;;;5043809;28;20197;-68
2022/07/12 10:58:31;;;;;;;0.70;0.70;;;23.60;99.90;27.60;97371.00;;;;5041116;28;20231;-68
2022/07/12 11:01:25;;;;;;;0.80;0.70;;;24.30;99.90;27.50;97363.00;;;;5045933;28;20235;-67
2022/07/12 11:04:14;;;;;;;0.50;0.50;;;24.90;96.80;28.00;97358.00;;;;5045345;28;20205;-68
2022/07/12 11:07:05;;;;;;;1.90;1.73;;;25.20;95.70;27.90;97364.00;;;;5038478;28;20209;-68
2022/07/12 11:09:53;;;;;;;0.60;0.60;;;25.60;94.10;28.80;97339.00;;;;5037465;28;20225;-70
2022/07/12 11:12:42;;;;;;;0.83;0.70;;;26.00;93.10;29.40;97408.00;;;;5039928;28;20210;-68
2022/07/12 11:15:31;;;;;;;0.70;0.70;;;26.40;90.80;27.60;97425.00;;;;5029812;28;20221;-67
2022/07/12 11:18:31;;;;;;;1.23;0.77;;;26.20;89.50;26.60;97432.00;;;;5035101;28;20587;-67
2022/07/12 11:21:21;;;;;;;1.70;0.60;;;25.70;90.00;26.20;97447.00;;;;5035512;28;20231;-67
2022/07/12 11:24:17;;;;;;;0.80;0.80;;;25.30;89.60;25.50;97447.00;;;;5031011;28;20552;-67
2022/07/12 11:27:07;;;;;;;1.07;0.60;;;24.90;90.70;25.30;97439.00;;;;5035730;28;20207;-68
2022/07/12 11:30:00;;;;;;;0.63;0.63;;;24.40;90.90;26.20;97411.00;;;;5036625;28;20727;-68
2022/07/12 11:32:50;;;;;;;0.80;0.70;;;24.40;92.20;27.00;97364.00;;;;5035049;28;20213;-68
2022/07/12 11:35:46;;;;;;;0.77;0.77;;;24.80;93.00;26.30;97442.00;;;;5034032;28;20197;-68
2022/07/12 11:38:37;;;;;;;1.20;0.90;;;24.90;88.90;25.70;97440.00;;;;5041381;28;20695;-70
2022/07/12 11:41:29;;;;;;;1.20;0.70;;;24.70;88.20;26.00;97444.00;;;;5035932;28;20231;-68
2022/07/12 11:44:18;;;;;;;1.57;0.90;;;24.50;90.20;26.40;97412.00;;;;5039167;28;20208;-69
2022/07/12 11:47:07;;;;;;;0.70;0.70;;;24.50;88.90;26.20;97434.00;;;;5041301;28;20209;-68
2022/07/12 11:49:56;;;;;;;0.50;0.50;;;24.60;89.20;24.90;97430.00;;;;5033853;28;20252;-69
2022/07/12 11:52:47;;;;;;;0.50;0.50;;;24.40;88.50;26.20;97406.00;;;;5032268;28;20923;-68
2022/07/12 11:55:43;;;;;;;0.60;0.40;;;24.40;88.10;26.10;97426.00;;;;5033925;28;20769;-69
2022/07/12 11:58:37;;;;;;;1.23;0.53;;;24.50;89.00;26.20;97422.00;;;;5031383;28;20207;-71
2022/07/12 12:01:26;;;;;;;0.77;0.77;;;24.60;88.60;26.50;97411.00;;;;5034966;28;20308;-70
2022/07/12 12:04:15;;;;;;;0.97;0.80;;;24.60;89.00;28.10;97331.00;;;;5038198;28;20208;-68
2022/07/12 12:07:04;;;;;;;0.70;0.70;;;25.10;89.50;29.00;97326.00;;;;5039359;28;20199;-68
2022/07/12 12:10:03;;;;;;;1.27;0.50;;;25.80;88.50;28.60;97417.00;;;;5036500;28;20246;-67
2022/07/12 12:12:55;;;;;;;2.70;0.60;;;26.20;86.70;26.80;97404.00;;;;5043387;28;20202;-69
2022/07/12 12:15:52;;;;;;;2.93;0.67;;;26.00;82.90;25.40;97399.00;;;;5028468;28;20220;-65
2022/07/12 12:18:43;;;;;;;3.07;1.00;;;25.60;80.70;26.80;97376.00;;;;5033537;28;20198;-67
2022/07/12 12:21:36;;;;;;;1.73;0.80;;;25.40;83.10;27.80;97398.00;;;;5040876;28;20810;-68
2022/07/12 12:24:24;;;;;;;0.60;0.60;;;25.70;84.50;27.00;97397.00;;;;5031869;28;20212;-69
2022/07/12 12:27:25;;;;;;;0.77;0.73;;;25.60;82.20;27.10;97407.00;;;;5036771;28;20202;-67
2022/07/12 12:30:15;;;;;;;0.80;0.80;;;25.40;82.60;26.20;97410.00;;;;5032261;28;20240;-68
2022/07/12 12:33:06;;;;;;;0.43;0.43;;;25.20;80.90;27.20;97416.00;;;;5035010;28;20221;-68
2022/07/12 12:35:55;;;;;;;1.77;0.77;;;25.20;82.50;27.00;97410.00;;;;5025761;28;20234;-68
2022/07/12 12:38:44;;;;;;;1.60;0.50;;;25.20;85.80;27.20;97411.00;;;;5017907;28;20595;-68
2022/07/12 12:41:41;;;;;;;0.50;0.50;;;25.20;90.30;25.30;97359.00;;;;5035605;28;20567;-70
2022/07/12 12:44:35;;;;;;;1.70;0.70;;;25.10;85.80;26.20;97419.00;;;;5029039;28;20708;-67
2022/07/12 12:50:45;;;;;;;0.50;0.50;;;24.80;87.40;26.90;97395.00;;;;5037322;28;20230;-68